createdAt,value
2022-08-14T00:00:42.209Z,826.00
2022-08-14T00:01:42.994Z,829.00
2022-08-14T00:02:42.444Z,828.00
2022-08-14T00:03:43.020Z,829.00
2022-08-14T00:04:44.874Z,830.00
2022-08-14T00:05:44.231Z,829.00
2022-08-14T00:06:44.048Z,828.00
2022-08-14T00:07:44.226Z,826.00
2022-08-14T00:08:45.554Z,816.00
2022-08-14T00:10:01.809Z,829.00
2022-08-14T00:10:50.156Z,831.00
2022-08-14T00:11:45.635Z,831.00
2022-08-14T00:12:53.383Z,831.00
2022-08-14T00:13:52.739Z,832.00
2022-08-14T00:14:46.935Z,833.00
2022-08-14T00:15:48.176Z,831.00
2022-08-14T00:16:47.647Z,832.00
2022-08-14T00:17:53.022Z,830.00
2022-08-14T00:19:05.987Z,830.00
2022-08-14T00:19:49.308Z,829.00
2022-08-14T00:20:49.559Z,828.00
2022-08-14T00:21:50.360Z,831.00
2022-08-14T00:22:57.869Z,829.00
2022-08-14T00:23:53.968Z,831.00
2022-08-14T00:24:50.907Z,832.00
2022-08-14T00:25:58.879Z,831.00
2022-08-14T00:26:06.530Z,831.00
2022-08-14T00:27:01.769Z,831.00
2022-08-14T00:28:01.466Z,833.00
2022-08-14T00:29:01.646Z,832.00
2022-08-14T00:30:02.067Z,831.00
2022-08-14T00:31:02.413Z,833.00
2022-08-14T00:32:05.929Z,833.00
2022-08-14T00:33:15.421Z,832.00
2022-08-14T00:34:36.684Z,832.00
2022-08-14T00:35:05.463Z,822.00
2022-08-14T00:36:37.432Z,831.00
2022-08-14T00:37:06.189Z,829.00
2022-08-14T00:38:07.054Z,831.00
2022-08-14T00:39:09.519Z,830.00
2022-08-14T00:40:19.179Z,830.00
2022-08-14T00:41:10.854Z,831.00
2022-08-14T00:42:21.016Z,832.00
2022-08-14T00:43:08.689Z,834.00
2022-08-14T00:44:08.691Z,832.00
2022-08-14T00:45:11.501Z,833.00
2022-08-14T00:46:32.266Z,833.00
2022-08-14T00:47:10.909Z,833.00
2022-08-14T00:48:10.398Z,832.00
2022-08-14T00:49:11.474Z,831.00
2022-08-14T00:50:11.199Z,832.00
2022-08-14T00:51:11.457Z,832.00
2022-08-14T00:52:14.236Z,831.00
2022-08-14T00:53:12.133Z,831.00
2022-08-14T00:54:21.516Z,821.00
2022-08-14T00:55:13.920Z,820.00
2022-08-14T00:56:14.176Z,819.00
2022-08-14T00:57:13.555Z,819.00
2022-08-14T00:57:22.664Z,819.00
2022-08-14T00:58:28.004Z,829.00
2022-08-14T00:59:22.910Z,830.00
2022-08-14T01:00:43.032Z,832.00
2022-08-14T01:01:24.007Z,825.00
2022-08-14T01:02:24.213Z,831.00
2022-08-14T01:03:25.530Z,831.00
2022-08-14T01:04:52.453Z,831.00
2022-08-14T01:05:25.173Z,832.00
2022-08-14T01:06:25.817Z,830.00
2022-08-14T01:07:27.140Z,832.00
2022-08-14T01:08:51.382Z,832.00
2022-08-14T01:09:26.612Z,831.00
2022-08-14T01:10:26.878Z,831.00
2022-08-14T01:11:35.285Z,830.00
2022-08-14T01:12:30.137Z,830.00
2022-08-14T01:13:28.161Z,831.00
2022-08-14T01:14:28.724Z,829.00
2022-08-14T01:15:31.638Z,812.00
2022-08-14T01:16:31.165Z,829.00
2022-08-14T01:17:29.108Z,829.00
2022-08-14T01:18:30.425Z,831.00
2022-08-14T01:19:30.945Z,831.00
2022-08-14T01:20:30.503Z,830.00
2022-08-14T01:21:31.540Z,831.00
2022-08-14T01:22:30.871Z,834.00
2022-08-14T01:23:46.490Z,832.00
2022-08-14T01:24:34.361Z,813.00
2022-08-14T01:25:31.896Z,831.00
2022-08-14T01:25:40.513Z,831.00
2022-08-14T01:26:41.016Z,832.00
2022-08-14T01:27:56.935Z,812.00
2022-08-14T01:28:56.625Z,826.00
2022-08-14T01:29:58.814Z,831.00
2022-08-14T01:30:42.331Z,830.00
2022-08-14T01:31:42.952Z,826.00
2022-08-14T01:32:44.215Z,834.00
2022-08-14T01:35:16.600Z,833.00
2022-08-14T01:35:18.333Z,829.00
2022-08-14T01:36:04.560Z,834.00
2022-08-14T01:36:45.052Z,813.00
2022-08-14T01:37:46.700Z,832.00
2022-08-14T01:38:45.781Z,834.00
2022-08-14T01:39:46.221Z,833.00
2022-08-14T01:40:46.353Z,825.00
2022-08-14T01:41:46.838Z,833.00
2022-08-14T01:42:47.082Z,831.00
2022-08-14T01:43:56.542Z,836.00
2022-08-14T01:44:49.926Z,824.00
2022-08-14T01:45:49.134Z,834.00
2022-08-14T01:46:48.410Z,825.00
2022-08-14T01:47:48.703Z,823.00
2022-08-14T01:48:49.028Z,834.00
2022-08-14T01:50:01.720Z,834.00
2022-08-14T01:50:49.879Z,834.00
2022-08-14T01:51:50.335Z,834.00
2022-08-14T01:52:58.648Z,834.00
2022-08-14T01:53:55.347Z,841.00
2022-08-14T01:54:58.302Z,840.00
2022-08-14T01:55:51.776Z,838.00
2022-08-14T01:56:55.759Z,778.00
2022-08-14T01:57:02.404Z,836.00
2022-08-14T01:58:18.524Z,838.00
2022-08-14T01:59:03.387Z,840.00
2022-08-14T02:00:04.712Z,840.00
2022-08-14T02:01:04.542Z,837.00
2022-08-14T02:02:05.117Z,835.00
2022-08-14T02:03:06.858Z,834.00
2022-08-14T02:04:40.819Z,833.00
2022-08-14T02:05:06.756Z,834.00
2022-08-14T02:06:32.198Z,834.00
2022-08-14T02:07:07.263Z,835.00
2022-08-14T02:08:09.599Z,835.00
2022-08-14T02:09:19.035Z,830.00
2022-08-14T02:10:08.810Z,836.00
2022-08-14T02:11:09.278Z,838.00
2022-08-14T02:12:10.738Z,835.00
2022-08-14T02:13:10.714Z,834.00
2022-08-14T02:14:11.095Z,834.00
2022-08-14T02:15:10.694Z,836.00
2022-08-14T02:16:13.550Z,835.00
2022-08-14T02:17:11.404Z,835.00
2022-08-14T02:18:15.141Z,835.00
2022-08-14T02:19:12.420Z,835.00
2022-08-14T02:20:12.896Z,823.00
2022-08-14T02:21:13.396Z,834.00
2022-08-14T02:22:13.758Z,833.00
2022-08-14T02:23:14.552Z,834.00
2022-08-14T02:24:38.976Z,834.00
2022-08-14T02:25:16.782Z,834.00
2022-08-14T02:26:24.146Z,833.00
2022-08-14T02:28:24.233Z,832.00
2022-08-14T02:28:24.525Z,833.00
2022-08-14T02:28:57.048Z,832.00
2022-08-14T02:29:25.213Z,833.00
2022-08-14T02:30:25.392Z,832.00
2022-08-14T02:31:36.081Z,832.00
2022-08-14T02:32:30.416Z,833.00
2022-08-14T02:33:29.372Z,834.00
2022-08-14T02:34:27.709Z,833.00
2022-08-14T02:35:32.670Z,833.00
2022-08-14T02:37:05.323Z,835.00
2022-08-14T02:37:46.412Z,838.00
2022-08-14T02:38:29.403Z,836.00
2022-08-14T02:39:29.933Z,834.00
2022-08-14T02:40:32.110Z,834.00
2022-08-14T02:41:34.992Z,823.00
2022-08-14T02:42:37.253Z,834.00
2022-08-14T02:43:36.428Z,834.00
2022-08-14T02:44:31.920Z,833.00
2022-08-14T02:45:32.825Z,824.00
2022-08-14T02:46:32.668Z,834.00
2022-08-14T02:47:33.050Z,834.00
2022-08-14T02:49:02.919Z,833.00
2022-08-14T02:49:34.451Z,832.00
2022-08-14T02:50:34.167Z,833.00
2022-08-14T02:51:34.572Z,832.00
2022-08-14T02:52:57.275Z,832.00
2022-08-14T02:53:37.503Z,831.00
2022-08-14T02:54:36.747Z,832.00
2022-08-14T02:55:37.988Z,832.00
2022-08-14T02:57:15.411Z,832.00
2022-08-14T02:57:40.109Z,832.00
2022-08-14T02:57:46.038Z,832.00
2022-08-14T02:58:46.935Z,832.00
2022-08-14T02:59:47.303Z,832.00
2022-08-14T03:00:48.756Z,832.00
2022-08-14T03:01:51.114Z,832.00
2022-08-14T03:02:58.950Z,832.00
2022-08-14T03:03:49.851Z,832.00
2022-08-14T03:04:51.189Z,833.00
2022-08-14T03:05:50.663Z,832.00
2022-08-14T03:06:57.820Z,822.00
2022-08-14T03:07:51.828Z,832.00
2022-08-14T03:08:51.604Z,833.00
2022-08-14T03:10:27.393Z,830.00
2022-08-14T03:10:52.033Z,832.00
2022-08-14T03:11:53.223Z,831.00
2022-08-14T03:12:52.616Z,831.00
2022-08-14T03:13:54.132Z,831.00
2022-08-14T03:14:54.313Z,831.00
2022-08-14T03:15:56.172Z,821.00
2022-08-14T03:16:53.806Z,821.00
2022-08-14T03:17:57.576Z,829.00
2022-08-14T03:18:54.377Z,833.00
2022-08-14T03:19:55.615Z,832.00
2022-08-14T03:20:56.113Z,832.00
2022-08-14T03:21:55.371Z,832.00
2022-08-14T03:22:55.748Z,833.00
2022-08-14T03:23:57.269Z,834.00
2022-08-14T03:24:06.002Z,834.00
2022-08-14T03:25:06.807Z,834.00
2022-08-14T03:26:07.716Z,834.00
2022-08-14T03:27:09.230Z,833.00
2022-08-14T03:28:14.386Z,831.00
2022-08-14T03:29:13.998Z,832.00
2022-08-14T03:30:14.596Z,831.00
2022-08-14T03:31:13.263Z,832.00
2022-08-14T03:32:11.028Z,832.00
2022-08-14T03:33:11.636Z,834.00
2022-08-14T03:34:24.542Z,834.00
2022-08-14T03:35:12.817Z,831.00
2022-08-14T03:37:39.185Z,833.00
2022-08-14T03:37:39.354Z,835.00
2022-08-14T03:39:11.968Z,834.00
2022-08-14T03:39:21.388Z,834.00
2022-08-14T03:40:18.370Z,833.00
2022-08-14T03:41:15.628Z,831.00
2022-08-14T03:42:19.629Z,832.00
2022-08-14T03:43:16.768Z,834.00
2022-08-14T03:45:26.969Z,809.00
2022-08-14T03:45:34.087Z,833.00
2022-08-14T03:46:38.864Z,832.00
2022-08-14T03:47:18.115Z,833.00
2022-08-14T03:48:27.453Z,834.00
2022-08-14T03:49:24.066Z,835.00
2022-08-14T03:50:23.728Z,835.00
2022-08-14T03:51:19.242Z,840.00
2022-08-14T03:52:38.228Z,840.00
2022-08-14T03:53:19.768Z,836.00
2022-08-14T03:54:21.186Z,835.00
2022-08-14T03:54:30.013Z,835.00
2022-08-14T03:55:30.394Z,834.00
2022-08-14T03:56:30.020Z,835.00
2022-08-14T03:57:31.501Z,826.00
2022-08-14T03:58:36.237Z,835.00
2022-08-14T03:59:31.078Z,835.00
2022-08-14T04:00:42.653Z,834.00
2022-08-14T04:01:39.144Z,835.00
2022-08-14T04:02:32.449Z,835.00
2022-08-14T04:03:32.422Z,831.00
2022-08-14T04:04:33.621Z,838.00
2022-08-14T04:05:37.931Z,835.00
2022-08-14T04:06:33.346Z,835.00
2022-08-14T04:07:36.118Z,836.00
2022-08-14T04:08:33.997Z,836.00
2022-08-14T04:09:35.539Z,835.00
2022-08-14T04:10:34.760Z,834.00
2022-08-14T04:11:35.360Z,834.00
2022-08-14T04:12:35.631Z,834.00
2022-08-14T04:13:35.799Z,835.00
2022-08-14T04:14:37.254Z,834.00
2022-08-14T04:15:56.692Z,822.00
2022-08-14T04:16:36.814Z,835.00
2022-08-14T04:17:37.494Z,835.00
2022-08-14T04:18:37.762Z,836.00
2022-08-14T04:19:38.195Z,838.00
2022-08-14T04:20:40.794Z,832.00
2022-08-14T04:21:59.900Z,836.00
2022-08-14T04:22:39.793Z,838.00
2022-08-14T04:23:40.072Z,836.00
2022-08-14T04:23:57.118Z,829.00
2022-08-14T04:24:52.043Z,838.00
2022-08-14T04:25:52.698Z,841.00
2022-08-14T04:26:52.965Z,835.00
2022-08-14T04:28:02.377Z,834.00
2022-08-14T04:29:05.258Z,835.00
2022-08-14T04:29:54.153Z,838.00
2022-08-14T04:30:54.434Z,840.00
2022-08-14T04:32:58.814Z,841.00
2022-08-14T04:33:00.851Z,840.00
2022-08-14T04:33:55.453Z,840.00
2022-08-14T04:34:55.796Z,840.00
2022-08-14T04:35:57.115Z,841.00
2022-08-14T04:36:56.295Z,841.00
2022-08-14T04:37:57.603Z,842.00
2022-08-14T04:38:57.289Z,842.00
2022-08-14T04:39:57.870Z,842.00
2022-08-14T04:40:57.283Z,845.00
2022-08-14T04:41:58.834Z,843.00
2022-08-14T04:42:57.923Z,843.00
2022-08-14T04:43:58.204Z,843.00
2022-08-14T04:45:00.906Z,843.00
2022-08-14T04:45:59.139Z,833.00
2022-08-14T04:46:59.760Z,828.00
2022-08-14T04:48:01.237Z,841.00
2022-08-14T04:49:01.443Z,841.00
2022-08-14T04:50:03.344Z,836.00
2022-08-14T04:51:01.083Z,842.00
2022-08-14T04:52:03.044Z,845.00
2022-08-14T04:52:18.921Z,835.00
2022-08-14T04:53:14.242Z,842.00
2022-08-14T04:54:16.618Z,842.00
2022-08-14T04:55:14.935Z,842.00
2022-08-14T04:56:30.616Z,840.00
2022-08-14T04:57:15.428Z,836.00
2022-08-14T04:58:21.868Z,836.00
2022-08-14T04:59:15.806Z,835.00
2022-08-14T05:00:18.198Z,834.00
2022-08-14T05:01:17.880Z,835.00
2022-08-14T05:02:16.577Z,835.00
2022-08-14T05:03:16.745Z,834.00
2022-08-14T05:04:19.924Z,832.00
2022-08-14T05:05:17.717Z,832.00
2022-08-14T05:06:37.376Z,832.00
2022-08-14T05:07:18.458Z,831.00
2022-08-14T05:08:31.817Z,832.00
2022-08-14T05:09:19.438Z,833.00
2022-08-14T05:10:21.927Z,835.00
2022-08-14T05:11:21.050Z,835.00
2022-08-14T05:13:24.256Z,805.00
2022-08-14T05:13:24.547Z,836.00
2022-08-14T05:14:46.399Z,834.00
2022-08-14T05:15:22.430Z,833.00
2022-08-14T05:16:22.794Z,833.00
2022-08-14T05:17:23.046Z,832.00
2022-08-14T05:19:16.859Z,831.00
2022-08-14T05:19:26.828Z,826.00
2022-08-14T05:19:33.013Z,826.00
2022-08-14T05:21:55.358Z,823.00
2022-08-14T05:21:59.542Z,809.00
2022-08-14T05:22:33.636Z,829.00
2022-08-14T05:23:34.717Z,826.00
2022-08-14T05:24:33.929Z,825.00
2022-08-14T05:25:35.608Z,816.00
2022-08-14T05:26:35.964Z,821.00
2022-08-14T05:27:36.413Z,813.00
2022-08-14T05:28:35.839Z,818.00
2022-08-14T05:29:36.306Z,814.00
2022-08-14T05:30:37.813Z,812.00
2022-08-14T05:31:40.591Z,810.00
2022-08-14T05:32:38.066Z,810.00
2022-08-14T05:33:38.335Z,806.00
2022-08-14T05:34:38.446Z,807.00
2022-08-14T05:35:39.011Z,804.00
2022-08-14T05:36:39.413Z,801.00
2022-08-14T05:37:39.545Z,798.00
2022-08-14T05:38:39.778Z,797.00
2022-08-14T05:39:41.191Z,798.00
2022-08-14T05:40:40.346Z,796.00
2022-08-14T05:41:53.364Z,794.00
2022-08-14T05:42:41.065Z,793.00
2022-08-14T05:43:41.967Z,792.00
2022-08-14T05:44:41.890Z,788.00
2022-08-14T05:45:42.018Z,787.00
2022-08-14T05:45:51.185Z,788.00
2022-08-14T05:46:51.862Z,787.00
2022-08-14T05:47:52.018Z,783.00
2022-08-14T05:48:53.246Z,783.00
2022-08-14T05:49:52.777Z,780.00
2022-08-14T05:50:54.560Z,778.00
2022-08-14T05:51:55.092Z,774.00
2022-08-14T05:52:55.742Z,775.00
2022-08-14T05:54:01.688Z,773.00
2022-08-14T05:54:55.233Z,763.00
2022-08-14T05:55:56.506Z,769.00
2022-08-14T05:56:56.865Z,756.00
2022-08-14T05:57:59.442Z,772.00
2022-08-14T05:58:56.530Z,769.00
2022-08-14T05:59:56.640Z,768.00
2022-08-14T06:00:57.473Z,765.00
2022-08-14T06:01:58.821Z,763.00
2022-08-14T06:02:58.015Z,763.00
2022-08-14T06:03:58.486Z,759.00
2022-08-14T06:04:59.873Z,760.00
2022-08-14T06:05:59.751Z,759.00
2022-08-14T06:06:59.950Z,757.00
2022-08-14T06:08:01.333Z,757.00
2022-08-14T06:09:01.790Z,756.00
2022-08-14T06:10:04.220Z,756.00
2022-08-14T06:10:09.967Z,756.00
2022-08-14T06:11:10.070Z,756.00
2022-08-14T06:12:11.956Z,754.00
2022-08-14T06:13:10.322Z,754.00
2022-08-14T06:14:20.839Z,753.00
2022-08-14T06:15:10.663Z,750.00
2022-08-14T06:16:11.902Z,748.00
2022-08-14T06:17:11.167Z,748.00
2022-08-14T06:18:11.334Z,747.00
2022-08-14T06:19:11.849Z,741.00
2022-08-14T06:20:12.151Z,744.00
2022-08-14T06:21:13.805Z,753.00
2022-08-14T06:22:13.077Z,750.00
2022-08-14T06:23:14.616Z,750.00
2022-08-14T06:24:18.187Z,748.00
2022-08-14T06:25:16.146Z,747.00
2022-08-14T06:26:15.514Z,746.00
2022-08-14T06:27:15.904Z,746.00
2022-08-14T06:28:26.951Z,745.00
2022-08-14T06:29:16.377Z,736.00
2022-08-14T06:30:17.721Z,750.00
2022-08-14T06:31:17.353Z,749.00
2022-08-14T06:32:38.726Z,749.00
2022-08-14T06:33:18.088Z,750.00
2022-08-14T06:35:03.149Z,749.00
2022-08-14T06:35:18.095Z,756.00
2022-08-14T06:36:19.521Z,753.00
2022-08-14T06:37:18.816Z,751.00
2022-08-14T06:37:27.461Z,750.00
2022-08-14T06:38:28.893Z,753.00
2022-08-14T06:39:36.473Z,750.00
2022-08-14T06:40:28.802Z,749.00
2022-08-14T06:41:57.930Z,749.00
2022-08-14T06:42:32.363Z,749.00
2022-08-14T06:43:30.330Z,749.00
2022-08-14T06:44:30.766Z,749.00
2022-08-14T06:45:29.469Z,749.00
2022-08-14T06:46:34.127Z,748.00
2022-08-14T06:47:30.157Z,747.00
2022-08-14T06:48:32.705Z,748.00
2022-08-14T06:49:30.607Z,748.00
2022-08-14T06:50:31.347Z,752.00
2022-08-14T06:51:38.866Z,753.00
2022-08-14T06:52:31.621Z,752.00
2022-08-14T06:53:32.841Z,753.00
2022-08-14T06:54:32.186Z,753.00
2022-08-14T06:55:32.265Z,750.00
2022-08-14T06:56:32.449Z,754.00
2022-08-14T06:57:34.009Z,753.00
2022-08-14T06:58:33.133Z,750.00
2022-08-14T06:59:34.340Z,749.00
2022-08-14T07:00:33.423Z,748.00
2022-08-14T07:01:34.905Z,748.00
2022-08-14T07:01:44.613Z,739.00
2022-08-14T07:02:44.961Z,739.00
2022-08-14T07:03:45.259Z,746.00
2022-08-14T07:04:45.525Z,744.00
2022-08-14T07:05:58.041Z,746.00
2022-08-14T07:06:47.713Z,746.00
2022-08-14T07:07:47.074Z,745.00
2022-08-14T07:08:47.308Z,746.00
2022-08-14T07:09:51.087Z,746.00
2022-08-14T07:10:48.231Z,739.00
2022-08-14T07:11:49.270Z,746.00
2022-08-14T07:12:56.382Z,745.00
2022-08-14T07:13:50.146Z,745.00
2022-08-14T07:14:50.554Z,742.00
2022-08-14T07:15:55.074Z,741.00
2022-08-14T07:16:51.549Z,744.00
2022-08-14T07:17:53.919Z,744.00
2022-08-14T07:18:52.503Z,744.00
2022-08-14T07:19:52.845Z,738.00
2022-08-14T07:20:53.197Z,744.00
2022-08-14T07:21:53.508Z,746.00
2022-08-14T07:22:56.061Z,745.00
2022-08-14T07:23:54.384Z,745.00
2022-08-14T07:24:54.853Z,738.00
2022-08-14T07:25:55.614Z,742.00
2022-08-14T07:26:56.045Z,741.00
2022-08-14T07:27:57.348Z,740.00
2022-08-14T07:28:56.412Z,746.00
2022-08-14T07:29:56.643Z,748.00
2022-08-14T07:30:05.263Z,748.00
2022-08-14T07:31:05.937Z,748.00
2022-08-14T07:32:06.754Z,746.00
2022-08-14T07:33:07.207Z,747.00
2022-08-14T07:34:08.508Z,747.00
2022-08-14T07:35:07.776Z,748.00
2022-08-14T07:36:09.043Z,748.00
2022-08-14T07:37:08.659Z,748.00
2022-08-14T07:38:09.420Z,748.00
2022-08-14T07:39:12.292Z,748.00
2022-08-14T07:40:10.417Z,750.00
2022-08-14T07:41:14.505Z,751.00
2022-08-14T07:42:11.456Z,753.00
2022-08-14T07:43:14.752Z,754.00
2022-08-14T07:44:32.070Z,754.00
2022-08-14T07:45:13.339Z,756.00
2022-08-14T07:46:15.228Z,753.00
2022-08-14T07:47:14.487Z,753.00
2022-08-14T07:48:16.576Z,756.00
2022-08-14T07:49:15.261Z,754.00
2022-08-14T07:50:18.579Z,756.00
2022-08-14T07:51:15.589Z,756.00
2022-08-14T07:52:22.209Z,758.00
2022-08-14T07:53:16.171Z,760.00
2022-08-14T07:54:23.689Z,758.00
2022-08-14T07:55:20.994Z,749.00
2022-08-14T07:56:36.756Z,762.00
2022-08-14T07:57:24.776Z,764.00
2022-08-14T07:58:31.721Z,768.00
2022-08-14T07:59:19.428Z,760.00
2022-08-14T07:59:41.524Z,760.00
2022-08-14T08:00:33.448Z,766.00
2022-08-14T08:01:31.512Z,766.00
2022-08-14T08:02:32.487Z,766.00
2022-08-14T08:03:31.104Z,764.00
2022-08-14T08:04:34.047Z,768.00
2022-08-14T08:05:31.509Z,768.00
2022-08-14T08:06:32.664Z,768.00
2022-08-14T08:07:32.263Z,768.00
2022-08-14T08:08:33.023Z,775.00
2022-08-14T08:09:34.573Z,776.00
2022-08-14T08:11:02.389Z,775.00
2022-08-14T08:11:34.972Z,775.00
2022-08-14T08:12:34.450Z,776.00
2022-08-14T08:13:34.602Z,776.00
2022-08-14T08:14:56.825Z,780.00
2022-08-14T08:15:35.784Z,774.00
2022-08-14T08:16:36.444Z,780.00
2022-08-14T08:17:38.706Z,784.00
2022-08-14T08:18:37.091Z,782.00
2022-08-14T08:19:37.372Z,784.00
2022-08-14T08:20:37.837Z,784.00
2022-08-14T08:21:39.650Z,783.00
2022-08-14T08:22:38.840Z,780.00
2022-08-14T08:23:50.863Z,785.00
2022-08-14T08:24:39.720Z,785.00
2022-08-14T08:24:50.352Z,785.00
2022-08-14T08:25:49.842Z,785.00
2022-08-14T08:26:50.850Z,785.00
2022-08-14T08:27:50.633Z,784.00
2022-08-14T08:28:50.808Z,777.00
2022-08-14T08:29:51.364Z,785.00
2022-08-14T08:30:51.370Z,785.00
2022-08-14T08:31:52.573Z,787.00
2022-08-14T08:32:51.748Z,786.00
2022-08-14T08:33:52.099Z,785.00
2022-08-14T08:34:53.541Z,784.00
2022-08-14T08:35:52.725Z,784.00
2022-08-14T08:36:52.904Z,784.00
2022-08-14T08:38:01.265Z,786.00
2022-08-14T08:39:17.706Z,784.00
2022-08-14T08:40:02.906Z,784.00
2022-08-14T08:40:54.559Z,785.00
2022-08-14T08:41:54.899Z,786.00
2022-08-14T08:42:57.068Z,786.00
2022-08-14T08:43:55.110Z,786.00
2022-08-14T08:44:55.248Z,786.00
2022-08-14T08:45:56.439Z,784.00
2022-08-14T08:46:57.053Z,778.00
2022-08-14T08:47:16.152Z,784.00
2022-08-14T08:48:20.607Z,784.00
2022-08-14T08:49:16.580Z,784.00
2022-08-14T08:50:23.128Z,783.00
2022-08-14T08:51:16.800Z,785.00
2022-08-14T08:52:24.980Z,784.00
2022-08-14T08:53:17.476Z,784.00
2022-08-14T08:54:20.147Z,784.00
2022-08-14T08:55:18.254Z,783.00
2022-08-14T08:56:30.650Z,778.00
2022-08-14T08:57:21.448Z,785.00
2022-08-14T08:58:19.972Z,785.00
2022-08-14T08:59:18.835Z,786.00
2022-08-14T09:00:25.805Z,780.00
2022-08-14T09:01:20.170Z,786.00
2022-08-14T09:02:20.235Z,782.00
2022-08-14T09:03:21.406Z,786.00
2022-08-14T09:04:21.843Z,787.00
2022-08-14T09:05:22.922Z,787.00
2022-08-14T09:06:52.282Z,787.00
2022-08-14T09:07:21.572Z,787.00
2022-08-14T09:08:30.299Z,785.00
2022-08-14T09:08:33.006Z,787.00
2022-08-14T09:09:33.974Z,782.00
2022-08-14T09:10:31.509Z,786.00
2022-08-14T09:11:33.450Z,783.00
2022-08-14T09:12:33.176Z,786.00
2022-08-14T09:13:33.055Z,786.00
2022-08-14T09:14:33.104Z,787.00
2022-08-14T09:15:36.821Z,783.00
2022-08-14T09:16:45.102Z,783.00
2022-08-14T09:17:36.264Z,783.00
2022-08-14T09:18:35.763Z,784.00
2022-08-14T09:19:36.431Z,787.00
2022-08-14T09:20:37.314Z,787.00
2022-08-14T09:21:38.872Z,786.00
2022-08-14T09:22:42.561Z,788.00
2022-08-14T09:24:28.923Z,788.00
2022-08-14T09:24:44.110Z,790.00
2022-08-14T09:25:59.675Z,788.00
2022-08-14T09:26:39.794Z,785.00
2022-08-14T09:27:41.508Z,790.00
2022-08-14T09:28:41.008Z,792.00
2022-08-14T09:29:41.579Z,792.00
2022-08-14T09:30:42.210Z,790.00
2022-08-14T09:31:42.909Z,792.00
2022-08-14T09:33:10.626Z,793.00
2022-08-14T09:33:56.625Z,786.00
2022-08-14T09:34:38.623Z,792.00
2022-08-14T09:35:43.584Z,786.00
2022-08-14T09:36:38.841Z,793.00
2022-08-14T09:37:39.421Z,785.00
2022-08-14T09:38:40.465Z,790.00
2022-08-14T09:39:39.692Z,790.00
2022-08-14T09:40:40.024Z,790.00
2022-08-14T09:42:20.280Z,787.00
2022-08-14T09:42:45.182Z,790.00
2022-08-14T09:43:41.549Z,788.00
2022-08-14T09:44:42.800Z,788.00
2022-08-14T09:45:53.526Z,787.00
2022-08-14T09:46:42.857Z,787.00
2022-08-14T09:47:43.071Z,786.00
2022-08-14T09:48:43.362Z,786.00
2022-08-14T09:49:43.642Z,786.00
2022-08-14T09:50:43.969Z,787.00
2022-08-14T09:51:58.304Z,787.00
2022-08-14T09:52:51.576Z,784.00
2022-08-14T09:54:18.643Z,784.00
2022-08-14T09:54:46.365Z,787.00
2022-08-14T09:55:47.335Z,793.00
2022-08-14T09:56:51.691Z,795.00
2022-08-14T09:57:48.799Z,793.00
2022-08-14T09:58:49.222Z,793.00
2022-08-14T09:59:07.209Z,792.00
2022-08-14T10:00:08.383Z,793.00
2022-08-14T10:01:08.267Z,792.00
2022-08-14T10:02:09.783Z,781.00
2022-08-14T10:03:08.881Z,792.00
2022-08-14T10:04:24.265Z,788.00
2022-08-14T10:05:09.007Z,792.00
2022-08-14T10:06:10.394Z,790.00
2022-08-14T10:07:10.073Z,787.00
2022-08-14T10:08:14.958Z,792.00
2022-08-14T10:09:11.914Z,788.00
2022-08-14T10:10:23.062Z,788.00
2022-08-14T10:11:11.480Z,787.00
2022-08-14T10:12:18.701Z,787.00
2022-08-14T10:13:12.394Z,786.00
2022-08-14T10:14:12.702Z,787.00
2022-08-14T10:15:13.072Z,786.00
2022-08-14T10:16:26.007Z,785.00
2022-08-14T10:17:13.764Z,786.00
2022-08-14T10:18:17.815Z,786.00
2022-08-14T10:19:14.337Z,786.00
2022-08-14T10:20:40.197Z,786.00
2022-08-14T10:21:15.243Z,785.00
2022-08-14T10:23:12.581Z,787.00
2022-08-14T10:23:17.851Z,787.00
2022-08-14T10:24:17.573Z,786.00
2022-08-14T10:25:16.759Z,787.00
2022-08-14T10:26:23.073Z,786.00
2022-08-14T10:27:17.758Z,787.00
2022-08-14T10:28:39.052Z,787.00
2022-08-14T10:29:23.364Z,786.00
2022-08-14T10:29:26.845Z,786.00
2022-08-14T10:30:27.401Z,785.00
2022-08-14T10:31:28.250Z,784.00
2022-08-14T10:32:40.104Z,784.00
2022-08-14T10:33:29.167Z,784.00
2022-08-14T10:34:35.704Z,784.00
2022-08-14T10:35:30.942Z,783.00
2022-08-14T10:36:35.251Z,784.00
2022-08-14T10:37:30.964Z,784.00
2022-08-14T10:38:31.803Z,785.00
2022-08-14T10:39:32.660Z,782.00
2022-08-14T10:40:38.929Z,784.00
2022-08-14T10:41:33.931Z,784.00
2022-08-14T10:42:34.595Z,782.00
2022-08-14T10:43:35.459Z,783.00
2022-08-14T10:44:35.691Z,775.00
2022-08-14T10:45:46.382Z,784.00
2022-08-14T10:47:39.943Z,786.00
2022-08-14T10:48:05.716Z,785.00
2022-08-14T10:48:42.163Z,784.00
2022-08-14T10:49:39.458Z,783.00
2022-08-14T10:50:40.112Z,783.00
2022-08-14T10:51:41.812Z,778.00
2022-08-14T10:52:42.252Z,784.00
2022-08-14T10:53:41.451Z,784.00
2022-08-14T10:53:59.106Z,784.00
2022-08-14T10:54:59.966Z,784.00
2022-08-14T10:56:00.554Z,784.00
2022-08-14T10:57:03.637Z,783.00
2022-08-14T10:58:03.402Z,784.00
2022-08-14T10:59:01.404Z,783.00
2022-08-14T11:00:01.610Z,782.00
2022-08-14T11:01:01.756Z,783.00
2022-08-14T11:02:02.680Z,781.00
2022-08-14T11:03:03.047Z,782.00
2022-08-14T11:04:03.892Z,783.00
2022-08-14T11:05:04.936Z,783.00
2022-08-14T11:06:04.714Z,782.00
2022-08-14T11:07:06.024Z,784.00
2022-08-14T11:08:09.232Z,783.00
2022-08-14T11:09:06.326Z,784.00
2022-08-14T11:10:06.999Z,782.00
2022-08-14T11:11:07.357Z,784.00
2022-08-14T11:12:34.846Z,788.00
2022-08-14T11:13:07.455Z,786.00
2022-08-14T11:14:09.496Z,784.00
2022-08-14T11:15:07.750Z,785.00
2022-08-14T11:16:41.627Z,782.00
2022-08-14T11:17:33.373Z,777.00
2022-08-14T11:18:40.072Z,782.00
2022-08-14T11:19:34.158Z,783.00
2022-08-14T11:20:35.007Z,783.00
2022-08-14T11:21:36.643Z,780.00
2022-08-14T11:23:03.128Z,782.00
2022-08-14T11:23:38.624Z,782.00
2022-08-14T11:24:54.679Z,782.00
2022-08-14T11:25:44.361Z,780.00
2022-08-14T11:26:37.915Z,784.00
2022-08-14T11:27:39.876Z,784.00
2022-08-14T11:28:47.605Z,783.00
2022-08-14T11:29:40.191Z,783.00
2022-08-14T11:30:49.868Z,782.00
2022-08-14T11:31:41.679Z,785.00
2022-08-14T11:32:41.602Z,784.00
2022-08-14T11:33:42.002Z,783.00
2022-08-14T11:34:42.281Z,783.00
2022-08-14T11:35:47.718Z,786.00
2022-08-14T11:37:03.786Z,787.00
2022-08-14T11:37:43.210Z,787.00
2022-08-14T11:38:49.279Z,787.00
2022-08-14T11:39:45.589Z,788.00
2022-08-14T11:40:43.592Z,795.00
2022-08-14T11:41:46.653Z,793.00
2022-08-14T11:42:56.184Z,776.00
2022-08-14T11:43:55.794Z,787.00
2022-08-14T11:44:46.959Z,786.00
2022-08-14T11:45:46.166Z,784.00
2022-08-14T11:45:55.250Z,785.00
2022-08-14T11:46:56.857Z,784.00
2022-08-14T11:48:12.881Z,785.00
2022-08-14T11:49:04.265Z,786.00
2022-08-14T11:49:57.409Z,785.00
2022-08-14T11:50:57.627Z,764.00
2022-08-14T11:51:57.680Z,784.00
2022-08-14T11:53:02.345Z,785.00
2022-08-14T11:53:58.671Z,786.00
2022-08-14T11:54:59.871Z,785.00
2022-08-14T11:56:00.007Z,778.00
2022-08-14T11:56:59.643Z,784.00
2022-08-14T11:57:59.904Z,784.00
2022-08-14T11:59:00.198Z,785.00
2022-08-14T12:00:00.660Z,785.00
2022-08-14T12:01:01.355Z,785.00
2022-08-14T12:02:02.745Z,784.00
2022-08-14T12:03:04.102Z,784.00
2022-08-14T12:04:02.604Z,781.00
2022-08-14T12:05:04.160Z,784.00
2022-08-14T12:06:03.535Z,784.00
2022-08-14T12:07:03.729Z,782.00
2022-08-14T12:08:06.610Z,784.00
2022-08-14T12:09:08.624Z,784.00
2022-08-14T12:10:27.130Z,784.00
2022-08-14T12:11:06.814Z,784.00
2022-08-14T12:12:08.577Z,784.00
2022-08-14T12:12:34.985Z,784.00
2022-08-14T12:13:18.319Z,784.00